Time;durP1;ratioP1;P1;durP2;ratioP2;P2;SDS_P1;SDS_P2;PMS_P1;PMS_P2;Temp;Humidity;BMP_temperature;BMP_pressure;BME280_temperature;BME280_humidity;BME280_pressure;Samples;Min_cycle;Max_cycle;Signal;HPM_P1;HPM_P2
2021/12/16 00:08:41;;;;;;;;;;;6.60;99.90;;;;;;5093214;28;19908;-79
2021/12/16 00:35:07;;;;;;;;;;;6.60;99.90;;;;;;5097153;28;19915;-79
2021/12/16 00:37:33;;;;;;;;;;;6.60;99.90;;;;;;5096801;28;19916;-80
2021/12/16 00:39:59;;;;;;;;;;;6.70;99.90;;;;;;5097143;28;19908;-80
2021/12/16 00:42:40;;;;;;;;;;;6.60;99.90;;;;;;5097183;28;19908;-79
2021/12/16 00:47:58;;;;;;;;;;;6.50;99.90;;;;;;5096979;28;19915;-78
2021/12/16 00:55:49;;;;;;;;;;;6.50;99.90;;;;;;5096895;28;19919;-79
2021/12/16 00:58:17;;;;;;;;;;;6.60;99.90;;;;;;5096619;28;19915;-79
2021/12/16 01:00:50;;;;;;;;;;;6.60;99.90;;;;;;5078600;28;19912;-79
2021/12/16 01:06:49;;;;;;;;;;;6.60;99.90;;;;;;5086401;28;19915;-79
2021/12/16 01:09:31;;;;;;;;;;;6.60;99.90;;;;;;5093410;28;20065;-78
2021/12/16 01:34:12;;;;;;;;;;;6.70;99.90;;;;;;5076002;28;20387;-78
2021/12/16 01:39:53;;;;;;;;;;;6.70;99.90;;;;;;5075791;28;19916;-79
2021/12/16 01:47:51;;;;;;;;;;;6.70;99.90;;;;;;5075588;28;19941;-79
2021/12/16 01:50:10;;;;;;;;;;;6.70;99.90;;;;;;5074947;28;19939;-78
2021/12/16 01:55:27;;;;;;;;;;;6.80;99.90;;;;;;5075577;28;19958;-78
2021/12/16 01:57:59;;;;;;;;;;;6.70;99.90;;;;;;5068904;28;19934;-79
2021/12/16 02:00:31;;;;;;;;;;;6.70;99.90;;;;;;5095942;28;19969;-79
2021/12/16 02:03:03;;;;;;;;;;;6.70;99.90;;;;;;5095430;28;19986;-79
2021/12/16 02:05:53;;;;;;;;;;;6.80;99.90;;;;;;5095817;28;19908;-79
2021/12/16 02:10:55;;;;;;;;;;;6.70;99.90;;;;;;5075298;28;20323;-79
2021/12/16 02:27:26;;;;;;;;;;;6.60;99.90;;;;;;5074989;28;20273;-78
2021/12/16 02:27:31;;;;;;;;;;;6.70;99.90;;;;;;5078563;28;20018;-79
2021/12/16 02:37:50;;;;;;;;;;;6.70;99.90;;;;;;5094481;28;19919;-79
2021/12/16 02:40:16;;;;;;;;;;;6.70;99.90;;;;;;5094840;28;19908;-79
2021/12/16 02:42:59;;;;;;;;;;;6.70;99.90;;;;;;5095041;28;19951;-79
2021/12/16 02:48:31;;;;;;;;;;;6.80;99.90;;;;;;5093992;28;20387;-79
2021/12/16 02:51:17;;;;;;;;;;;6.80;99.90;;;;;;5076416;28;19908;-79
2021/12/16 02:53:51;;;;;;;;;;;6.90;99.90;;;;;;5076366;28;20031;-78
2021/12/16 02:56:16;;;;;;;;;;;6.90;99.90;;;;;;5092964;28;19961;-79
2021/12/16 02:58:45;;;;;;;;;;;6.90;99.90;;;;;;5077219;28;19916;-79
2021/12/16 03:01:25;;;;;;;;;;;6.90;99.90;;;;;;5074188;28;19954;-78
2021/12/16 03:03:52;;;;;;;;;;;6.90;99.90;;;;;;5073977;28;19909;-78
2021/12/16 03:06:17;;;;;;;;;;;6.90;99.90;;;;;;5074170;28;19968;-78
2021/12/16 03:08:43;;;;;;;;;;;6.90;99.90;;;;;;5073715;28;19916;-78
2021/12/16 03:11:26;;;;;;;;;;;6.90;99.90;;;;;;5074000;28;19915;-79
2021/12/16 03:14:22;;;;;;;;;;;7.00;99.90;;;;;;5073829;28;20015;-79
2021/12/16 03:21:46;;;;;;;;;;;6.90;99.90;;;;;;5094172;28;19908;-79
2021/12/16 03:35:27;;;;;;;;;;;6.80;99.90;;;;;;5093718;28;20429;-78
2021/12/16 03:37:53;;;;;;;;;;;6.80;99.90;;;;;;5084756;28;19913;-78
2021/12/16 03:40:19;;;;;;;;;;;6.90;99.90;;;;;;5073472;28;19991;-78
2021/12/16 03:42:45;;;;;;;;;;;6.90;99.90;;;;;;5073569;28;19908;-79
2021/12/16 03:46:25;;;;;;;;;;;6.80;99.90;;;;;;5073649;28;20284;-79
2021/12/16 03:47:59;;;;;;;;;;;6.90;99.90;;;;;;5082171;28;20296;-78
2021/12/16 03:50:25;;;;;;;;;;;6.90;99.90;;;;;;5075358;28;20003;-79
2021/12/16 03:52:51;;;;;;;;;;;7.00;99.90;;;;;;5074709;28;20438;-79
2021/12/16 03:55:17;;;;;;;;;;;6.90;99.90;;;;;;5093608;28;19976;-78
2021/12/16 03:57:43;;;;;;;;;;;7.00;99.90;;;;;;5093245;28;20460;-79
2021/12/16 04:00:11;;;;;;;;;;;6.90;99.90;;;;;;5093400;28;19909;-79
2021/12/16 04:02:37;;;;;;;;;;;7.00;99.90;;;;;;5093365;28;20010;-79
2021/12/16 04:05:03;;;;;;;;;;;7.00;99.90;;;;;;5093650;28;19939;-79
2021/12/16 04:07:30;;;;;;;;;;;7.00;99.90;;;;;;5093160;28;19909;-79
2021/12/16 04:09:58;;;;;;;;;;;7.10;99.90;;;;;;5093399;28;19916;-78
2021/12/16 04:12:26;;;;;;;;;;;7.10;99.90;;;;;;5093253;28;19920;-78
2021/12/16 04:14:53;;;;;;;;;;;7.10;99.90;;;;;;5093237;28;19916;-78
2021/12/16 04:17:21;;;;;;;;;;;7.00;99.90;;;;;;5093293;28;19924;-79
2021/12/16 04:19:47;;;;;;;;;;;6.90;99.90;;;;;;5093465;28;20261;-79
2021/12/16 04:22:28;;;;;;;;;;;7.00;99.90;;;;;;5093352;28;19913;-79
2021/12/16 04:24:54;;;;;;;;;;;7.00;99.90;;;;;;5074991;28;19916;-78
2021/12/16 04:27:20;;;;;;;;;;;7.00;99.90;;;;;;5092940;28;20585;-79
2021/12/16 04:29:45;;;;;;;;;;;6.90;99.90;;;;;;5093231;28;19908;-78
2021/12/16 04:32:11;;;;;;;;;;;6.90;99.90;;;;;;5093401;28;19908;-78
2021/12/16 04:34:36;;;;;;;;;;;6.90;99.90;;;;;;5093228;28;19908;-79
2021/12/16 04:37:03;;;;;;;;;;;6.90;99.90;;;;;;5093169;28;19952;-78
2021/12/16 04:39:30;;;;;;;;;;;6.90;99.90;;;;;;5072974;28;19908;-79
2021/12/16 04:41:56;;;;;;;;;;;7.00;99.90;;;;;;5055055;28;20387;-79
2021/12/16 04:44:22;;;;;;;;;;;7.00;99.90;;;;;;5072998;28;19909;-79
2021/12/16 04:46:50;;;;;;;;;;;7.00;99.90;;;;;;5072929;28;19909;-78
2021/12/16 04:49:16;;;;;;;;;;;7.00;99.90;;;;;;5090859;28;19915;-78
2021/12/16 04:51:47;;;;;;;;;;;7.00;99.90;;;;;;5073547;28;19909;-79
2021/12/16 04:54:13;;;;;;;;;;;6.90;99.90;;;;;;5091861;28;19919;-79
2021/12/16 04:56:40;;;;;;;;;;;7.00;99.90;;;;;;5092926;28;19912;-78
2021/12/16 04:59:10;;;;;;;;;;;7.00;99.90;;;;;;5092692;28;19915;-79
2021/12/16 05:01:39;;;;;;;;;;;7.00;99.90;;;;;;5092938;28;20402;-79
2021/12/16 05:04:05;;;;;;;;;;;7.10;99.90;;;;;;5092730;28;20373;-78
2021/12/16 05:06:31;;;;;;;;;;;7.10;99.90;;;;;;5092993;28;19908;-78
2021/12/16 05:08:58;;;;;;;;;;;7.10;99.90;;;;;;5092521;28;19914;-79
2021/12/16 05:11:23;;;;;;;;;;;7.10;99.90;;;;;;5092861;28;19938;-79
2021/12/16 05:13:49;;;;;;;;;;;7.10;99.90;;;;;;5096015;28;19928;-78
2021/12/16 05:16:15;;;;;;;;;;;6.90;99.90;;;;;;5096675;28;19919;-79
2021/12/16 05:18:42;;;;;;;;;;;7.00;99.90;;;;;;5096084;28;19961;-78
2021/12/16 05:21:15;;;;;;;;;;;7.00;99.90;;;;;;5096556;28;20312;-79
2021/12/16 05:26:24;;;;;;;;;;;6.90;99.90;;;;;;5096463;28;20343;-78
2021/12/16 05:28:56;;;;;;;;;;;6.90;99.90;;;;;;5082284;28;19913;-79
2021/12/16 05:31:23;;;;;;;;;;;7.00;99.90;;;;;;5076227;28;19947;-78
2021/12/16 05:33:49;;;;;;;;;;;7.00;99.90;;;;;;5075664;28;20225;-78
2021/12/16 05:36:15;;;;;;;;;;;6.90;99.90;;;;;;5076138;28;19912;-78
2021/12/16 05:38:41;;;;;;;;;;;6.90;99.90;;;;;;5087533;28;19992;-78
2021/12/16 05:41:08;;;;;;;;;;;6.90;99.90;;;;;;5096079;28;19935;-78
2021/12/16 05:43:34;;;;;;;;;;;7.00;99.90;;;;;;5095986;28;19912;-79
2021/12/16 05:46:00;;;;;;;;;;;7.00;99.90;;;;;;5083645;28;19909;-78
2021/12/16 05:48:28;;;;;;;;;;;7.10;99.90;;;;;;5075384;28;19961;-79
2021/12/16 05:50:55;;;;;;;;;;;7.10;99.90;;;;;;5075648;28;19909;-78
2021/12/16 05:53:21;;;;;;;;;;;7.10;99.90;;;;;;5038798;28;19917;-79
2021/12/16 05:55:47;;;;;;;;;;;7.10;99.90;;;;;;5075518;28;19919;-78
2021/12/16 05:58:18;;;;;;;;;;;7.10;99.90;;;;;;5064932;28;19916;-79
2021/12/16 06:00:44;;;;;;;;;;;7.10;99.90;;;;;;5095769;28;19912;-79
2021/12/16 06:03:10;;;;;;;;;;;7.10;99.90;;;;;;5095428;28;19908;-79
2021/12/16 06:05:36;;;;;;;;;;;7.00;99.90;;;;;;5095599;28;19914;-79
2021/12/16 06:08:02;;;;;;;;;;;7.10;99.90;;;;;;5095136;28;19931;-78
2021/12/16 06:13:08;;;;;;;;;;;7.10;99.90;;;;;;5095249;28;20003;-78
2021/12/16 06:15:56;;;;;;;;;;;7.00;99.90;;;;;;5077022;28;20295;-79
2021/12/16 06:29:19;;;;;;;;;;;7.10;99.90;;;;;;5095098;28;19915;-79
2021/12/16 06:31:48;;;;;;;;;;;7.20;99.90;;;;;;5095151;28;19912;-79
2021/12/16 06:34:14;;;;;;;;;;;7.20;99.90;;;;;;5076547;28;19985;-78
2021/12/16 06:36:39;;;;;;;;;;;7.10;99.90;;;;;;5095033;28;20364;-79
2021/12/16 06:39:05;;;;;;;;;;;7.10;99.90;;;;;;5094353;28;20291;-78
2021/12/16 06:41:35;;;;;;;;;;;7.20;99.90;;;;;;5076791;28;19954;-79
2021/12/16 06:44:09;;;;;;;;;;;7.20;99.90;;;;;;5094895;28;19909;-79
2021/12/16 06:46:38;;;;;;;;;;;7.20;99.90;;;;;;5094986;28;20337;-78
2021/12/16 06:49:05;;;;;;;;;;;7.20;99.90;;;;;;5094278;28;19919;-78
2021/12/16 06:51:40;;;;;;;;;;;7.20;99.90;;;;;;5094462;28;19912;-79
2021/12/16 06:54:10;;;;;;;;;;;7.20;99.90;;;;;;5057035;28;20406;-79
2021/12/16 06:56:47;;;;;;;;;;;7.20;99.90;;;;;;5094936;28;20074;-79
2021/12/16 06:59:23;;;;;;;;;;;7.30;99.90;;;;;;5094126;28;19908;-79
2021/12/16 07:02:03;;;;;;;;;;;7.30;99.90;;;;;;5094590;28;19939;-78
2021/12/16 07:04:29;;;;;;;;;;;7.30;99.90;;;;;;5094513;28;19908;-79
2021/12/16 07:06:55;;;;;;;;;;;7.30;99.90;;;;;;5094527;28;19908;-78
2021/12/16 07:09:20;;;;;;;;;;;7.40;99.90;;;;;;5061184;28;19908;-78
2021/12/16 07:11:51;;;;;;;;;;;7.30;99.90;;;;;;5073835;28;20507;-79
2021/12/16 07:14:19;;;;;;;;;;;7.30;99.90;;;;;;5074046;28;19965;-78
2021/12/16 07:16:46;;;;;;;;;;;7.30;99.90;;;;;;5074054;28;19912;-79
2021/12/16 07:19:12;;;;;;;;;;;7.30;99.90;;;;;;5055340;28;19908;-78
2021/12/16 07:21:38;;;;;;;;;;;7.40;99.90;;;;;;5056073;28;19919;-78
2021/12/16 07:24:05;;;;;;;;;;;7.40;99.90;;;;;;5073922;28;19912;-79
2021/12/16 07:26:30;;;;;;;;;;;7.40;99.90;;;;;;5073754;28;19908;-79
2021/12/16 07:28:56;;;;;;;;;;;7.40;99.90;;;;;;5055516;28;19916;-79
2021/12/16 07:31:22;;;;;;;;;;;7.40;99.90;;;;;;5073696;28;20428;-78
2021/12/16 07:33:47;;;;;;;;;;;7.50;99.90;;;;;;5073820;28;19908;-79
2021/12/16 07:36:18;;;;;;;;;;;7.50;99.90;;;;;;5055145;28;19917;-78
2021/12/16 07:38:44;;;;;;;;;;;7.50;99.90;;;;;;5082284;28;20442;-78
2021/12/16 07:41:10;;;;;;;;;;;7.50;99.90;;;;;;5075628;28;19958;-78
2021/12/16 07:46:08;;;;;;;;;;;7.60;99.90;;;;;;5093550;28;19909;-79
2021/12/16 07:48:33;;;;;;;;;;;7.60;99.90;;;;;;5092889;28;19929;-79
2021/12/16 07:51:00;;;;;;;;;;;7.60;99.90;;;;;;5093587;28;19934;-78
2021/12/16 07:53:26;;;;;;;;;;;7.60;99.90;;;;;;5075552;28;20003;-78
2021/12/16 07:55:52;;;;;;;;;;;7.60;99.90;;;;;;5074300;28;20439;-78
2021/12/16 07:58:19;;;;;;;;;;;7.60;99.90;;;;;;5093338;28;19908;-79
2021/12/16 08:00:45;;;;;;;;;;;7.50;99.90;;;;;;5093487;28;19908;-79
2021/12/16 08:03:12;;;;;;;;;;;7.50;99.90;;;;;;5093345;28;19915;-78
2021/12/16 08:05:40;;;;;;;;;;;7.60;99.90;;;;;;5093505;28;20273;-79
2021/12/16 08:08:08;;;;;;;;;;;7.60;99.90;;;;;;5093331;28;19995;-79
2021/12/16 08:10:34;;;;;;;;;;;7.60;99.90;;;;;;5093433;28;19919;-78
2021/12/16 08:13:00;;;;;;;;;;;7.70;99.90;;;;;;5093337;28;19966;-79
2021/12/16 08:15:26;;;;;;;;;;;7.70;99.90;;;;;;5075090;28;19909;-79
2021/12/16 08:17:54;;;;;;;;;;;7.70;99.90;;;;;;5093141;28;19916;-78
2021/12/16 08:20:20;;;;;;;;;;;7.70;99.90;;;;;;5073194;28;19908;-78
2021/12/16 08:22:48;;;;;;;;;;;7.80;99.90;;;;;;5073257;28;19913;-79
2021/12/16 08:25:14;;;;;;;;;;;7.80;99.90;;;;;;5073196;28;20334;-79
2021/12/16 08:27:40;;;;;;;;;;;7.80;99.90;;;;;;5073190;28;19916;-79
2021/12/16 08:30:08;;;;;;;;;;;7.80;99.90;;;;;;5072758;28;19909;-78
2021/12/16 08:32:34;;;;;;;;;;;7.80;99.90;;;;;;5072868;28;19914;-78
2021/12/16 08:35:00;;;;;;;;;;;7.80;99.90;;;;;;5073218;28;20030;-78
2021/12/16 08:37:25;;;;;;;;;;;7.80;99.90;;;;;;5072961;28;20003;-78
2021/12/16 08:39:52;;;;;;;;;;;7.80;99.90;;;;;;5072631;28;19913;-79
2021/12/16 08:42:18;;;;;;;;;;;7.80;99.90;;;;;;5072976;28;19988;-79
2021/12/16 08:44:44;;;;;;;;;;;7.90;99.90;;;;;;5055045;28;20248;-78
2021/12/16 08:47:11;;;;;;;;;;;7.80;99.90;;;;;;5074127;28;19940;-78
2021/12/16 08:49:37;;;;;;;;;;;7.90;99.90;;;;;;5076348;28;19916;-79
2021/12/16 08:52:06;;;;;;;;;;;7.90;99.90;;;;;;5076980;28;19913;-79
2021/12/16 08:54:32;;;;;;;;;;;7.90;99.90;;;;;;5076751;28;20257;-78
2021/12/16 08:56:58;;;;;;;;;;;7.80;99.90;;;;;;5052381;28;19923;-79
2021/12/16 08:59:24;;;;;;;;;;;7.90;99.90;;;;;;5076223;28;19916;-79
2021/12/16 09:01:52;;;;;;;;;;;7.90;99.90;;;;;;5058629;28;19976;-79
2021/12/16 09:04:19;;;;;;;;;;;7.90;99.90;;;;;;5076580;28;19916;-79
2021/12/16 09:06:45;;;;;;;;;;;7.90;99.90;;;;;;5076472;28;20005;-78
2021/12/16 09:09:10;;;;;;;;;;;7.90;99.90;;;;;;5076369;28;20377;-78
2021/12/16 09:11:44;;;;;;;;;;;7.80;99.90;;;;;;5075929;28;19908;-78
2021/12/16 09:14:10;;;;;;;;;;;7.70;99.90;;;;;;5076352;28;19912;-78
2021/12/16 09:16:36;;;;;;;;;;;7.80;99.90;;;;;;5076227;28;20373;-78
2021/12/16 09:19:03;;;;;;;;;;;7.70;99.90;;;;;;5083885;28;19957;-79
2021/12/16 09:21:30;;;;;;;;;;;7.70;99.90;;;;;;5078327;28;19954;-79
2021/12/16 09:23:57;;;;;;;;;;;7.70;99.90;;;;;;5096459;28;19908;-79
2021/12/16 09:26:23;;;;;;;;;;;7.80;99.90;;;;;;5096233;28;19908;-78
2021/12/16 09:28:48;;;;;;;;;;;7.80;99.90;;;;;;5077824;28;20299;-79
2021/12/16 09:31:15;;;;;;;;;;;7.80;99.90;;;;;;5096405;28;19908;-78
2021/12/16 09:33:43;;;;;;;;;;;7.80;99.90;;;;;;5096007;28;19915;-78
2021/12/16 09:36:10;;;;;;;;;;;7.90;99.90;;;;;;5078022;28;20381;-78
2021/12/16 09:38:36;;;;;;;;;;;7.90;99.90;;;;;;5095820;28;19908;-78
2021/12/16 09:41:01;;;;;;;;;;;7.90;99.90;;;;;;5096085;28;19943;-78
2021/12/16 09:43:29;;;;;;;;;;;7.90;99.90;;;;;;5096421;28;19943;-78
2021/12/16 09:45:57;;;;;;;;;;;7.90;99.90;;;;;;5077817;28;19908;-79
2021/12/16 09:48:23;;;;;;;;;;;8.10;99.90;;;;;;5095629;28;19908;-79
2021/12/16 09:50:49;;;;;;;;;;;8.10;99.90;;;;;;5095772;28;20382;-79
2021/12/16 09:53:14;;;;;;;;;;;8.20;99.90;;;;;;5096011;28;20386;-78
2021/12/16 09:55:43;;;;;;;;;;;8.30;99.90;;;;;;5058135;28;19971;-79
2021/12/16 09:58:09;;;;;;;;;;;8.30;99.90;;;;;;5095408;28;19908;-79
2021/12/16 10:00:35;;;;;;;;;;;8.30;99.90;;;;;;5095566;28;19999;-79
2021/12/16 10:03:01;;;;;;;;;;;8.40;99.90;;;;;;5077384;28;19915;-78
2021/12/16 10:05:28;;;;;;;;;;;8.40;99.90;;;;;;5095681;28;19958;-78
2021/12/16 10:07:53;;;;;;;;;;;8.50;99.90;;;;;;5095799;28;20350;-79
2021/12/16 10:10:25;;;;;;;;;;;8.60;99.90;;;;;;5095078;28;19914;-78
2021/12/16 10:12:53;;;;;;;;;;;8.60;99.90;;;;;;5095347;28;20407;-79
2021/12/16 10:18:07;;;;;;;;;;;8.70;99.90;;;;;;5095164;28;19916;-78
2021/12/16 10:20:43;;;;;;;;;;;8.70;99.90;;;;;;5058124;28;19912;-78
2021/12/16 10:23:11;;;;;;;;;;;8.90;99.90;;;;;;5056876;28;20403;-79
2021/12/16 10:25:40;;;;;;;;;;;8.90;99.90;;;;;;5075191;28;19909;-79
2021/12/16 10:28:06;;;;;;;;;;;8.90;99.90;;;;;;5074994;28;20324;-78
2021/12/16 10:30:39;;;;;;;;;;;8.90;99.90;;;;;;5056586;28;19995;-79
2021/12/16 10:33:13;;;;;;;;;;;8.90;99.90;;;;;;5074735;28;19909;-79
2021/12/16 10:35:39;;;;;;;;;;;8.90;99.90;;;;;;5074848;28;19958;-78
2021/12/16 10:38:06;;;;;;;;;;;9.00;99.90;;;;;;5074622;28;19908;-79
2021/12/16 10:40:34;;;;;;;;;;;9.00;99.90;;;;;;5056384;28;19909;-78
2021/12/16 10:43:03;;;;;;;;;;;9.00;99.90;;;;;;5074617;28;19950;-79
2021/12/16 10:45:34;;;;;;;;;;;9.10;99.90;;;;;;5074638;28;20042;-78
2021/12/16 10:48:19;;;;;;;;;;;9.10;99.90;;;;;;5074360;28;20391;-78
2021/12/16 10:51:03;;;;;;;;;;;9.10;99.90;;;;;;5075224;28;20315;-78
2021/12/16 10:53:43;;;;;;;;;;;9.10;99.90;;;;;;5076632;28;20449;-79
2021/12/16 10:56:09;;;;;;;;;;;9.20;99.90;;;;;;5075158;28;19912;-78
2021/12/16 10:58:53;;;;;;;;;;;9.10;99.90;;;;;;5094409;28;20346;-78
2021/12/16 11:01:30;;;;;;;;;;;9.10;99.90;;;;;;5094592;28;19953;-79
2021/12/16 11:03:55;;;;;;;;;;;9.10;99.90;;;;;;5094275;28;19908;-79
2021/12/16 11:06:29;;;;;;;;;;;9.20;99.90;;;;;;5076372;28;19965;-78
2021/12/16 11:09:10;;;;;;;;;;;9.20;99.90;;;;;;5094041;28;19955;-79
2021/12/16 11:11:36;;;;;;;;;;;9.30;99.90;;;;;;5094122;28;19916;-78
2021/12/16 11:14:05;;;;;;;;;;;9.40;99.90;;;;;;5094361;28;19920;-78
2021/12/16 11:16:31;;;;;;;;;;;9.50;99.90;;;;;;5094278;28;20007;-79
2021/12/16 11:18:57;;;;;;;;;;;9.50;99.90;;;;;;5093568;28;19962;-78
2021/12/16 11:21:30;;;;;;;;;;;9.60;99.90;;;;;;5075969;28;19912;-78
2021/12/16 11:23:55;;;;;;;;;;;9.60;99.90;;;;;;5094254;28;20400;-78
2021/12/16 11:26:28;;;;;;;;;;;9.60;99.90;;;;;;5094004;28;19939;-79
2021/12/16 11:28:54;;;;;;;;;;;9.70;99.90;;;;;;5091354;28;20414;-79
2021/12/16 11:31:20;;;;;;;;;;;9.80;99.90;;;;;;5073728;28;19995;-79
2021/12/16 11:33:47;;;;;;;;;;;9.90;99.90;;;;;;5073875;28;19951;-78
2021/12/16 11:36:14;;;;;;;;;;;10.00;99.90;;;;;;5073622;28;19912;-79
2021/12/16 11:38:42;;;;;;;;;;;9.80;99.90;;;;;;5073252;28;19999;-79
2021/12/16 11:41:14;;;;;;;;;;;9.90;99.90;;;;;;5055647;28;20054;-78
2021/12/16 11:43:43;;;;;;;;;;;10.00;99.90;;;;;;5073612;28;19909;-78
2021/12/16 11:46:14;;;;;;;;;;;10.30;99.90;;;;;;5073628;28;19908;-79
2021/12/16 11:48:40;;;;;;;;;;;11.40;99.90;;;;;;5073157;28;19908;-79
2021/12/16 11:51:12;;;;;;;;;;;15.30;99.90;;;;;;5073332;28;20354;-79
2021/12/16 11:53:40;;;;;;;;;;;17.90;93.60;;;;;;5073496;28;19915;-79
2021/12/16 11:56:05;;;;;;;;;;;18.40;87.40;;;;;;5053726;28;19912;-79
2021/12/16 11:58:31;;;;;;;;;;;19.00;82.80;;;;;;5073408;28;19909;-79
2021/12/16 12:00:58;;;;;;;;;;;19.20;81.30;;;;;;5091721;28;19908;-80
2021/12/16 12:03:32;;;;;;;;;;;20.50;75.80;;;;;;5093285;28;19912;-80
2021/12/16 12:05:57;;;;;;;;;;;21.00;71.90;;;;;;5075234;28;19965;-80
2021/12/16 12:08:26;;;;;;;;;;;21.70;68.80;;;;;;5092229;28;19912;-79
2021/12/16 12:10:59;;;;;;;;;;;21.30;67.90;;;;;;5093075;28;20407;-80
2021/12/16 12:13:35;;;;;;;;;;;21.30;67.80;;;;;;5071831;28;19943;-80
2021/12/16 12:16:08;;;;;;;;;;;20.70;66.80;;;;;;5072999;28;19913;-79
2021/12/16 12:18:34;;;;;;;;;;;19.70;70.00;;;;;;5071664;28;19986;-80
2021/12/16 12:21:14;;;;;;;;;;;19.80;69.50;;;;;;5055230;28;20357;-80
2021/12/16 12:23:40;;;;;;;;;;;19.70;70.90;;;;;;5057346;28;19909;-80
2021/12/16 12:26:06;;;;;;;;;;;18.90;71.20;;;;;;5057355;28;19909;-80
2021/12/16 12:28:32;;;;;;;;;;;18.70;71.80;;;;;;5057236;28;19915;-79
2021/12/16 12:30:57;;;;;;;;;;;18.20;72.50;;;;;;5074628;28;19923;-79
2021/12/16 12:33:23;;;;;;;;;;;18.60;72.00;;;;;;5075688;28;19912;-80
2021/12/16 12:35:48;;;;;;;;;;;17.70;73.40;;;;;;5077138;28;19909;-80
2021/12/16 12:38:14;;;;;;;;;;;17.50;75.70;;;;;;5077262;28;19909;-79
2021/12/16 12:40:40;;;;;;;;;;;18.20;73.70;;;;;;5061677;28;19913;-80
2021/12/16 12:43:09;;;;;;;;;;;19.50;70.60;;;;;;5057097;28;19910;-79
2021/12/16 12:45:36;;;;;;;;;;;18.60;70.90;;;;;;5057018;28;19936;-79
2021/12/16 12:48:03;;;;;;;;;;;17.70;74.80;;;;;;5057011;28;19916;-80
2021/12/16 12:50:30;;;;;;;;;;;17.60;75.20;;;;;;5055055;28;19916;-79
2021/12/16 12:52:59;;;;;;;;;;;16.80;77.10;;;;;;5056806;28;19915;-79
2021/12/16 12:55:31;;;;;;;;;;;16.60;78.30;;;;;;5056699;28;19909;-80
2021/12/16 12:58:01;;;;;;;;;;;16.40;79.10;;;;;;5038085;28;20312;-80
2021/12/16 13:00:32;;;;;;;;;;;15.90;80.30;;;;;;5069151;28;20438;-79
2021/12/16 13:03:10;;;;;;;;;;;15.70;81.40;;;;;;5076425;28;19909;-80
2021/12/16 13:05:36;;;;;;;;;;;15.30;82.70;;;;;;5076537;28;19909;-79
2021/12/16 13:08:06;;;;;;;;;;;14.80;84.80;;;;;;5076546;28;19934;-80
2021/12/16 13:10:37;;;;;;;;;;;14.60;84.80;;;;;;5062814;28;20378;-79
2021/12/16 13:13:28;;;;;;;;;;;14.30;87.10;;;;;;5068186;28;20070;-79
2021/12/16 13:27:30;;;;;;;;;;;14.40;91.50;;;;;;5076199;28;19915;-79
2021/12/16 13:32:41;;;;;;;;;;;14.20;90.40;;;;;;5095593;28;19915;-79
2021/12/16 13:37:47;;;;;;;;;;;13.40;91.80;;;;;;5095892;28;19919;-80
2021/12/16 13:40:20;;;;;;;;;;;13.20;92.10;;;;;;5096141;28;19909;-79
2021/12/16 13:42:51;;;;;;;;;;;12.90;92.80;;;;;;5096140;28;20461;-79
2021/12/16 13:45:22;;;;;;;;;;;12.90;93.20;;;;;;5078305;28;20058;-79
2021/12/16 13:48:25;;;;;;;;;;;12.80;93.20;;;;;;5077633;28;19908;-79
2021/12/16 14:02:11;;;;;;;;;;;11.80;97.30;;;;;;5095847;28;20426;-78
2021/12/16 14:10:04;;;;;;;;;;;11.20;99.90;;;;;;5095523;28;20390;-79
2021/12/16 14:13:41;;;;;;;;;;;11.20;99.90;;;;;;5077085;28;19920;-79
2021/12/16 14:15:26;;;;;;;;;;;11.20;99.90;;;;;;5095179;28;19915;-79
2021/12/16 14:18:08;;;;;;;;;;;11.30;99.90;;;;;;5076933;28;19918;-78
2021/12/16 14:23:32;;;;;;;;;;;11.20;99.90;;;;;;5075150;28;20383;-79
2021/12/16 14:26:19;;;;;;;;;;;11.10;99.90;;;;;;5056839;28;19947;-79
2021/12/16 14:39:59;;;;;;;;;;;10.80;99.90;;;;;;5074299;28;20300;-79
2021/12/16 14:43:15;;;;;;;;;;;10.70;99.90;;;;;;5072834;28;19916;-79
2021/12/16 14:45:45;;;;;;;;;;;10.80;99.90;;;;;;5070566;28;20265;-78
2021/12/16 14:50:45;;;;;;;;;;;10.70;99.90;;;;;;5085322;28;19995;-79
2021/12/16 14:53:12;;;;;;;;;;;10.70;99.90;;;;;;5094777;28;19960;-79
2021/12/16 14:55:38;;;;;;;;;;;10.70;99.90;;;;;;5094753;28;19908;-79
2021/12/16 14:58:04;;;;;;;;;;;10.70;99.90;;;;;;5075575;28;19927;-79
2021/12/16 15:00:39;;;;;;;;;;;10.70;99.90;;;;;;5094269;28;20383;-79
2021/12/16 15:03:16;;;;;;;;;;;10.70;99.90;;;;;;5076115;28;19912;-78
2021/12/16 15:05:47;;;;;;;;;;;10.60;99.90;;;;;;5076189;28;20020;-79
2021/12/16 15:08:18;;;;;;;;;;;10.50;99.90;;;;;;5076328;28;19908;-79
2021/12/16 15:10:44;;;;;;;;;;;10.50;99.90;;;;;;5094150;28;19988;-78
2021/12/16 15:13:27;;;;;;;;;;;10.40;99.90;;;;;;5094134;28;19920;-79
2021/12/16 15:16:12;;;;;;;;;;;10.40;99.90;;;;;;5094146;28;19908;-79
2021/12/16 15:43:03;;;;;;;;;;;10.40;99.90;;;;;;5073493;28;19908;-78
2021/12/16 15:45:34;;;;;;;;;;;10.30;99.90;;;;;;5073648;28;19909;-79
2021/12/16 15:48:09;;;;;;;;;;;10.20;99.90;;;;;;5073518;28;19909;-79
2021/12/16 15:50:37;;;;;;;;;;;10.20;99.90;;;;;;5081866;28;19915;-79
2021/12/16 15:53:06;;;;;;;;;;;10.20;99.90;;;;;;5087480;28;20276;-79
2021/12/16 15:55:37;;;;;;;;;;;10.10;99.90;;;;;;5073286;28;19908;-79
2021/12/16 15:58:20;;;;;;;;;;;10.20;99.90;;;;;;5049528;28;19944;-79
2021/12/16 16:00:48;;;;;;;;;;;10.20;99.90;;;;;;5048911;28;20019;-79
2021/12/16 16:03:15;;;;;;;;;;;10.10;99.90;;;;;;5055336;28;19920;-78
2021/12/16 16:05:42;;;;;;;;;;;10.10;99.90;;;;;;5073698;28;20376;-79
2021/12/16 16:08:09;;;;;;;;;;;10.10;99.90;;;;;;5073653;28;19909;-78
2021/12/16 16:10:35;;;;;;;;;;;10.10;99.90;;;;;;5073670;28;19908;-79
2021/12/16 16:13:09;;;;;;;;;;;10.00;99.90;;;;;;5073434;28;19924;-79
2021/12/16 16:15:35;;;;;;;;;;;10.10;99.90;;;;;;5073819;28;20054;-78
2021/12/16 16:18:13;;;;;;;;;;;10.10;99.90;;;;;;5073524;28;19999;-79
2021/12/16 16:20:42;;;;;;;;;;;10.10;99.90;;;;;;5055236;28;19985;-79
2021/12/16 16:23:09;;;;;;;;;;;10.10;99.90;;;;;;5073533;28;19909;-79
2021/12/16 16:25:36;;;;;;;;;;;10.10;99.90;;;;;;5073494;28;19916;-79
2021/12/16 16:28:02;;;;;;;;;;;10.10;99.90;;;;;;5073765;28;20357;-78
2021/12/16 16:30:29;;;;;;;;;;;10.10;99.90;;;;;;5073440;28;20412;-78
2021/12/16 16:33:01;;;;;;;;;;;10.10;99.90;;;;;;5073414;28;19912;-78
2021/12/16 16:35:27;;;;;;;;;;;10.10;99.90;;;;;;5073430;28;19909;-79
2021/12/16 16:37:53;;;;;;;;;;;10.10;99.90;;;;;;5073333;28;19913;-79
2021/12/16 16:40:18;;;;;;;;;;;10.10;99.90;;;;;;5073404;28;19920;-78
2021/12/16 16:42:46;;;;;;;;;;;10.00;99.90;;;;;;5073323;28;19958;-79
2021/12/16 16:45:20;;;;;;;;;;;10.00;99.90;;;;;;5055297;28;20361;-79
2021/12/16 16:47:51;;;;;;;;;;;10.00;99.90;;;;;;5073735;28;19916;-78
2021/12/16 16:50:18;;;;;;;;;;;10.00;99.90;;;;;;5073576;28;19908;-78
2021/12/16 16:52:46;;;;;;;;;;;10.10;99.90;;;;;;5055261;28;19912;-78
2021/12/16 16:55:17;;;;;;;;;;;10.10;99.90;;;;;;5073179;28;19989;-78
2021/12/16 16:57:48;;;;;;;;;;;10.10;99.90;;;;;;5055117;28;19913;-78
2021/12/16 17:00:28;;;;;;;;;;;10.10;99.90;;;;;;5073385;28;19917;-78
2021/12/16 17:02:55;;;;;;;;;;;10.10;99.90;;;;;;5073128;28;19919;-78
2021/12/16 17:05:24;;;;;;;;;;;10.10;99.90;;;;;;5073445;28;19908;-78
2021/12/16 17:08:03;;;;;;;;;;;10.10;99.90;;;;;;5073671;28;19909;-79
2021/12/16 17:10:39;;;;;;;;;;;10.10;99.90;;;;;;5076850;28;19914;-79
2021/12/16 17:13:11;;;;;;;;;;;10.00;99.90;;;;;;5076796;28;19976;-79
2021/12/16 17:15:45;;;;;;;;;;;10.10;99.90;;;;;;5076658;28;19915;-79
2021/12/16 17:18:37;;;;;;;;;;;10.00;99.90;;;;;;5058219;28;19912;-78
2021/12/16 17:21:26;;;;;;;;;;;10.10;99.90;;;;;;5073478;28;19909;-79
2021/12/16 17:24:00;;;;;;;;;;;10.00;99.90;;;;;;5068164;28;19908;-79
2021/12/16 17:26:28;;;;;;;;;;;10.00;99.90;;;;;;5076517;28;20067;-79
2021/12/16 17:28:55;;;;;;;;;;;10.00;99.90;;;;;;5076474;28;19912;-79
2021/12/16 17:31:41;;;;;;;;;;;10.00;99.90;;;;;;5058451;28;19909;-79
2021/12/16 17:34:27;;;;;;;;;;;10.10;99.90;;;;;;5075863;28;19916;-79
2021/12/16 17:37:08;;;;;;;;;;;10.10;99.90;;;;;;5076055;28;20009;-79
2021/12/16 17:39:41;;;;;;;;;;;10.10;99.90;;;;;;5058230;28;19999;-78
2021/12/16 17:42:08;;;;;;;;;;;10.10;99.90;;;;;;5076480;28;19990;-79
2021/12/16 17:44:34;;;;;;;;;;;10.10;99.90;;;;;;5076127;28;19986;-79
2021/12/16 17:47:05;;;;;;;;;;;10.10;99.90;;;;;;5076057;28;20313;-78
2021/12/16 17:49:33;;;;;;;;;;;10.10;99.90;;;;;;5076120;28;20361;-78
2021/12/16 17:52:04;;;;;;;;;;;10.10;99.90;;;;;;5058056;28;19915;-78
2021/12/16 17:54:29;;;;;;;;;;;10.20;99.90;;;;;;5075951;28;20042;-79
2021/12/16 17:56:57;;;;;;;;;;;10.10;99.90;;;;;;5076045;28;20003;-79
2021/12/16 17:59:33;;;;;;;;;;;10.10;99.90;;;;;;5075980;28;19915;-79
2021/12/16 18:01:59;;;;;;;;;;;10.10;99.90;;;;;;5076519;28;19909;-79
2021/12/16 18:04:25;;;;;;;;;;;10.10;99.90;;;;;;5075830;28;19987;-79
2021/12/16 18:07:11;;;;;;;;;;;10.10;99.90;;;;;;5075900;28;20002;-78
2021/12/16 18:09:38;;;;;;;;;;;10.10;99.90;;;;;;5075306;28;19948;-79
2021/12/16 18:12:04;;;;;;;;;;;10.10;99.90;;;;;;5057543;28;19924;-79
2021/12/16 18:14:32;;;;;;;;;;;10.20;99.90;;;;;;5057514;28;19912;-79